Airport View

Enter AWOS ICAO identifier for current METAR.

ex. KFNL

KHDN 191956Z AUTO 26014G20KT 9SM CLR 30/M03 A3024 RMK AO2 SLP145 T03001028

19 Aug 2019 20:17

Frequency: 119.275

Phone: 970-276-3690

Other Area AWOS: KCAG - KSBS - KC07 - KDWX

TAF KEGE 191720Z 1918/2018 24006KT P6SM FEW150 FEW250 FM191900 24010G20KT P6SM FEW150 FEW250 FM200000 26010KT P6SM FEW150 FEW250 FM200200 19006KT P6SM FEW150 FEW250